Time;durP1;ratioP1;P1;durP2;ratioP2;P2;SDS_P1;SDS_P2;PMS_P1;PMS_P2;Temp;Humidity;BMP_temperature;BMP_pressure;BME280_temperature;BME280_humidity;BME280_pressure;Samples;Min_cycle;Max_cycle;Signal;HPM_P1;HPM_P2
2022/12/03 00:02:52;;;;;;;16.95;6.40;;;;;;;-7.58;73.34;103329.00;10610161;27;20532;-77
2022/12/03 00:07:55;;;;;;;15.32;6.78;;;;;;;-7.60;73.09;103337.97;10610647;27;20035;-78
2022/12/03 00:12:57;;;;;;;16.63;5.95;;;;;;;-7.61;73.61;103338.94;10611836;27;20040;-78
2022/12/03 00:17:59;;;;;;;14.32;6.65;;;;;;;-7.56;73.33;103332.44;10617372;27;20043;-77
2022/12/03 00:23:02;;;;;;;15.25;7.10;;;;;;;-7.48;73.82;103332.78;10607044;28;20035;-78
2022/12/03 00:28:04;;;;;;;13.75;7.03;;;;;;;-7.44;73.68;103321.00;10609157;28;20042;-78
2022/12/03 00:33:07;;;;;;;13.95;6.35;;;;;;;-7.43;73.46;103330.72;10578014;28;20453;-78
2022/12/03 00:38:09;;;;;;;15.93;6.43;;;;;;;-7.46;73.88;103325.56;10592967;28;20043;-79
2022/12/03 00:43:11;;;;;;;16.05;6.38;;;;;;;-7.49;73.78;103323.94;10608355;28;20133;-77
2022/12/03 00:48:13;;;;;;;14.02;6.63;;;;;;;-7.46;73.84;103314.88;10589514;28;20051;-77
2022/12/03 00:53:15;;;;;;;15.02;7.47;;;;;;;-7.46;73.67;103320.22;10609034;28;20040;-77
2022/12/03 00:58:17;;;;;;;16.00;6.43;;;;;;;-7.48;74.03;103320.31;10590644;28;20422;-77
2022/12/03 01:03:20;;;;;;;14.00;7.25;;;;;;;-7.47;74.02;103316.69;10609979;28;20043;-77
2022/12/03 01:08:22;;;;;;;13.77;7.00;;;;;;;-7.42;74.61;103308.44;10606586;28;20051;-77
2022/12/03 01:13:24;;;;;;;13.32;6.55;;;;;;;-7.42;74.30;103316.44;10612194;28;20047;-77
2022/12/03 01:18:26;;;;;;;10.63;6.28;;;;;;;-7.44;73.62;103303.19;10619170;27;20051;-77
2022/12/03 01:23:28;;;;;;;15.40;7.68;;;;;;;-7.44;74.18;103299.66;10616447;27;20039;-76
2022/12/03 01:28:31;;;;;;;16.77;6.70;;;;;;;-7.49;74.54;103293.75;10616968;28;20046;-76
2022/12/03 01:33:33;;;;;;;8.77;5.07;;;;;;;-7.48;73.79;103285.66;10617745;27;20043;-77
2022/12/03 01:38:35;;;;;;;15.32;7.22;;;;;;;-7.52;74.06;103275.28;10616084;28;20050;-75
2022/12/03 01:43:37;;;;;;;12.73;6.03;;;;;;;-7.53;74.18;103270.91;10616426;28;20044;-78
2022/12/03 01:48:40;;;;;;;16.70;7.40;;;;;;;-7.54;74.38;103286.06;10619696;27;20421;-78
2022/12/03 01:53:43;;;;;;;14.43;7.65;;;;;;;-7.57;74.94;103285.41;10616754;27;20047;-77
2022/12/03 01:58:45;;;;;;;12.40;5.60;;;;;;;-7.59;74.39;103277.50;10600076;27;20035;-77
2022/12/03 02:03:47;;;;;;;10.93;5.97;;;;;;;-7.55;74.89;103278.16;10595704;27;20044;-77
2022/12/03 02:08:49;;;;;;;12.57;6.25;;;;;;;-7.55;75.04;103280.81;10621945;27;20421;-77
2022/12/03 02:13:55;;;;;;;12.18;6.05;;;;;;;-7.53;74.86;103270.91;10618930;27;20027;-77
2022/12/03 02:18:59;;;;;;;11.90;6.07;;;;;;;-7.50;74.70;103278.72;10601102;27;20039;-77
2022/12/03 02:24:04;;;;;;;17.88;6.13;;;;;;;-7.51;74.75;103287.66;10615251;27;20510;-77
2022/12/03 02:29:06;;;;;;;14.10;6.15;;;;;;;-7.46;74.86;103293.56;10596278;27;20044;-77
2022/12/03 02:34:09;;;;;;;9.77;4.05;;;;;;;-7.46;74.59;103291.78;10614949;27;20058;-77
2022/12/03 02:39:11;;;;;;;12.90;6.43;;;;;;;-7.50;74.28;103292.91;10595363;27;20043;-77
2022/12/03 02:44:14;;;;;;;11.80;6.20;;;;;;;-7.49;74.38;103281.28;10616739;27;20031;-76
2022/12/03 02:49:16;;;;;;;11.43;6.50;;;;;;;-7.47;74.91;103275.84;10613935;27;20502;-77
2022/12/03 02:54:18;;;;;;;15.40;6.25;;;;;;;-7.47;75.08;103270.50;10576708;28;20047;-77
2022/12/03 02:59:20;;;;;;;10.57;6.03;;;;;;;-7.45;74.97;103257.97;10614943;27;20040;-77
2022/12/03 03:04:23;;;;;;;13.75;6.90;;;;;;;-7.49;74.90;103253.75;10599526;27;20497;-77
2022/12/03 03:09:25;;;;;;;14.15;6.43;;;;;;;-7.49;74.58;103253.75;10609830;27;20062;-77
2022/12/03 03:14:28;;;;;;;11.48;6.18;;;;;;;-7.49;74.86;103241.28;10625850;27;20027;-77
2022/12/03 03:19:30;;;;;;;12.05;6.18;;;;;;;-7.52;74.60;103240.63;10584584;27;20044;-77
2022/12/03 03:24:32;;;;;;;12.30;6.82;;;;;;;-7.53;75.38;103250.44;10607430;27;20059;-77
2022/12/03 03:29:35;;;;;;;13.70;6.45;;;;;;;-7.50;74.73;103254.72;10589418;28;20055;-77
2022/12/03 03:34:37;;;;;;;12.20;6.45;;;;;;;-7.49;75.36;103259.09;10584456;27;20043;-77
2022/12/03 03:39:40;;;;;;;12.35;6.82;;;;;;;-7.49;75.24;103246.59;10606468;27;20043;-76
2022/12/03 03:44:44;;;;;;;11.70;6.55;;;;;;;-7.52;75.45;103245.97;10580069;28;20036;-76
2022/12/03 03:49:49;;;;;;;13.85;5.30;;;;;;;-7.52;74.86;103245.97;10566043;27;20047;-77
2022/12/03 03:54:51;;;;;;;12.60;5.70;;;;;;;-7.56;74.68;103255.13;10597663;27;20035;-78
2022/12/03 03:59:53;;;;;;;13.88;6.50;;;;;;;-7.62;74.50;103253.72;10607212;27;20031;-77
2022/12/03 04:04:56;;;;;;;13.52;6.05;;;;;;;-7.67;75.18;103248.66;10635240;27;20023;-77
2022/12/03 04:09:58;;;;;;;12.52;6.53;;;;;;;-7.67;75.69;103245.97;10637872;27;20039;-78
2022/12/03 04:15:01;;;;;;;9.00;4.70;;;;;;;-7.69;75.65;103249.72;10648321;27;20441;-78
2022/12/03 04:20:04;;;;;;;11.25;6.38;;;;;;;-7.70;75.70;103251.53;10600754;27;20032;-77
2022/12/03 04:30:30;;;;;;;10.85;5.15;;;;;;;-7.77;75.55;103250.22;10598474;27;20047;-77
2022/12/03 04:35:41;;;;;;;16.77;6.85;;;;;;;-7.77;75.85;103255.53;10616617;27;20039;-78
2022/12/03 04:40:59;;;;;;;15.25;6.93;;;;;;;-7.80;75.59;103247.75;10606755;28;20028;-78
2022/12/03 04:46:01;;;;;;;13.23;6.43;;;;;;;-7.85;75.85;103238.31;10593753;28;20054;-77
2022/12/03 04:51:05;;;;;;;12.50;6.28;;;;;;;-7.88;76.78;103243.84;10620423;27;20055;-78
2022/12/03 04:56:07;;;;;;;13.38;7.15;;;;;;;-7.88;76.69;103243.84;10621233;27;20069;-78
2022/12/03 05:01:09;;;;;;;15.05;7.10;;;;;;;-7.90;76.38;103242.13;10642831;27;20050;-78
2022/12/03 05:06:11;;;;;;;11.68;6.75;;;;;;;-7.89;76.96;103237.66;10633923;27;20370;-77
2022/12/03 05:11:13;;;;;;;11.48;6.03;;;;;;;-7.90;77.17;103241.28;10568221;27;20044;-77
2022/12/03 05:16:16;;;;;;;13.00;7.25;;;;;;;-7.90;76.92;103251.94;10585210;27;20034;-78
2022/12/03 05:21:18;;;;;;;14.13;7.00;;;;;;;-7.90;76.87;103239.47;10608327;27;20044;-77
2022/12/03 05:26:20;;;;;;;17.65;6.70;;;;;;;-7.88;77.01;103228.69;10613100;27;20101;-77
2022/12/03 05:31:23;;;;;;;13.60;7.57;;;;;;;-7.87;77.49;103246.41;10621643;27;20428;-77
2022/12/03 05:36:25;;;;;;;17.27;8.20;;;;;;;-7.86;77.22;103242.78;10566961;27;20035;-78
2022/12/03 05:46:48;;;;;;;14.98;7.18;;;;;;;-7.80;78.02;103234.41;10600559;28;20036;-78
2022/12/03 05:51:50;;;;;;;14.20;6.30;;;;;;;-7.72;77.71;103233.91;10554294;27;20032;-79
2022/12/03 05:56:53;;;;;;;15.45;7.00;;;;;;;-7.69;77.71;103245.22;10617953;27;20043;-78
2022/12/03 06:01:55;;;;;;;13.82;7.10;;;;;;;-7.64;77.90;103229.78;10610413;27;20047;-78
2022/12/03 06:06:57;;;;;;;15.05;6.85;;;;;;;-7.64;77.22;103224.44;10613312;27;20039;-78
2022/12/03 06:11:59;;;;;;;14.35;6.75;;;;;;;-7.63;77.63;103222.69;10607965;27;20035;-77
2022/12/03 06:17:02;;;;;;;14.90;7.53;;;;;;;-7.54;77.77;103234.53;10603548;27;20525;-78
2022/12/03 06:22:04;;;;;;;12.23;6.25;;;;;;;-7.52;77.58;103227.28;10593270;27;20043;-78
2022/12/03 06:27:06;;;;;;;15.45;7.20;;;;;;;-7.51;77.46;103216.53;10607646;27;20054;-78
2022/12/03 06:32:09;;;;;;;13.45;6.93;;;;;;;-7.49;77.23;103229.75;10579330;27;20549;-78
2022/12/03 06:37:11;;;;;;;14.10;7.68;;;;;;;-7.45;77.79;103225.97;10599183;27;20054;-78
2022/12/03 06:42:13;;;;;;;17.50;7.93;;;;;;;-7.39;77.61;103220.22;10590336;28;20497;-78
2022/12/03 06:47:15;;;;;;;14.18;7.53;;;;;;;-7.33;77.70;103223.31;10610273;28;20040;-78
2022/12/03 06:52:18;;;;;;;17.23;7.35;;;;;;;-7.28;77.78;103216.84;10609505;27;20044;-77
2022/12/03 06:57:20;;;;;;;13.77;7.05;;;;;;;-7.23;76.95;103218.25;10605943;27;20035;-78
2022/12/03 07:02:22;;;;;;;13.85;6.78;;;;;;;-7.20;77.21;103219.84;10591268;27;20054;-78
2022/12/03 07:07:24;;;;;;;15.73;7.03;;;;;;;-7.19;77.82;103217.06;10607211;27;20036;-78
2022/12/03 07:12:26;;;;;;;21.33;8.40;;;;;;;-7.16;77.43;103222.19;10579735;27;20047;-77
2022/12/03 07:17:28;;;;;;;17.40;7.88;;;;;;;-7.15;77.11;103218.56;10594860;27;20422;-79
2022/12/03 07:22:31;;;;;;;19.08;9.18;;;;;;;-7.14;77.65;103225.63;10592967;27;20509;-77
2022/12/03 07:27:33;;;;;;;18.15;7.47;;;;;;;-7.05;77.71;103225.03;10586914;27;20036;-79
2022/12/03 07:32:35;;;;;;;17.75;8.93;;;;;;;-7.00;77.52;103222.88;10611677;27;20051;-80
2022/12/03 07:37:37;;;;;;;14.43;6.80;;;;;;;-6.93;77.47;103218.00;10609229;27;20044;-77
2022/12/03 07:42:39;;;;;;;13.18;6.60;;;;;;;-6.87;77.74;103222.06;10576930;28;20036;-78
2022/12/03 07:47:41;;;;;;;15.63;7.47;;;;;;;-6.74;76.93;103223.81;10600400;27;20579;-78
2022/12/03 07:52:44;;;;;;;12.18;6.82;;;;;;;-6.52;77.21;103216.97;10595752;28;20043;-83
2022/12/03 07:57:46;;;;;;;17.88;7.20;;;;;;;-6.27;76.88;103213.44;10590749;27;20063;-78
2022/12/03 08:02:48;;;;;;;15.45;7.60;;;;;;;-6.32;76.08;103212.91;10626876;27;20047;-81
2022/12/03 08:07:50;;;;;;;13.82;6.68;;;;;;;-6.41;76.20;103215.28;10612406;27;20051;-77
2022/12/03 08:12:53;;;;;;;15.73;6.63;;;;;;;-6.43;76.19;103214.50;10610938;27;20046;-75
2022/12/03 08:17:59;;;;;;;13.23;6.00;;;;;;;-6.44;76.61;103214.63;10631644;27;20460;-77
2022/12/03 08:23:08;;;;;;;16.58;7.55;;;;;;;-6.39;76.92;103208.00;10644742;27;20043;-77
2022/12/03 08:28:14;;;;;;;18.98;8.48;;;;;;;-6.32;76.78;103211.09;10592249;28;20047;-76
2022/12/03 08:33:34;;;;;;;16.77;7.60;;;;;;;-6.28;77.08;103211.72;10568439;28;20044;-77
2022/12/03 08:38:36;;;;;;;17.23;6.88;;;;;;;-6.29;76.90;103207.34;10638171;27;20050;-76
2022/12/03 08:43:41;;;;;;;12.82;7.43;;;;;;;-6.23;76.64;103213.13;10650996;28;20175;-76
2022/12/03 08:48:44;;;;;;;10.57;6.50;;;;;;;-6.14;76.87;103219.63;10623624;28;20516;-76
2022/12/03 08:53:49;;;;;;;13.00;6.28;;;;;;;-6.08;76.53;103216.50;10618965;28;20035;-76
2022/12/03 08:58:57;;;;;;;13.55;6.85;;;;;;;-5.96;76.44;103215.66;10597266;28;20044;-77
2022/12/03 09:04:24;;;;;;;16.90;7.00;;;;;;;-5.92;76.54;103216.28;10585137;28;20032;-76
2022/12/03 09:09:26;;;;;;;16.73;6.93;;;;;;;-5.98;76.31;103214.91;10608530;28;20855;-76
2022/12/03 09:14:29;;;;;;;16.40;7.72;;;;;;;-5.93;76.29;103211.91;10588245;28;20390;-76
2022/12/03 09:19:31;;;;;;;13.18;5.38;;;;;;;-5.88;76.33;103215.94;10617757;28;20051;-76
2022/12/03 09:24:33;;;;;;;11.38;6.20;;;;;;;-5.96;76.58;103207.63;10652016;28;20571;-77
2022/12/03 09:29:36;;;;;;;13.50;6.53;;;;;;;-5.95;76.27;103219.16;10652557;28;20513;-76
2022/12/03 09:34:39;;;;;;;8.02;5.10;;;;;;;-5.91;76.60;103207.28;10632918;27;20054;-77
2022/12/03 09:39:41;;;;;;;12.85;6.32;;;;;;;-5.97;76.56;103207.75;10655653;27;20035;-75
2022/12/03 09:44:43;;;;;;;12.93;6.15;;;;;;;-5.95;76.42;103211.16;10654779;27;20039;-77
2022/12/03 09:49:46;;;;;;;6.20;3.95;;;;;;;-5.94;76.48;103211.03;10615642;28;20039;-75
2022/12/03 09:54:48;;;;;;;12.45;5.30;;;;;;;-5.95;77.23;103219.16;10616545;28;20054;-77
2022/12/03 09:59:51;;;;;;;15.15;6.65;;;;;;;-5.97;76.67;103218.44;10617482;28;20040;-77
2022/12/03 10:04:54;;;;;;;18.20;6.45;;;;;;;-5.96;76.78;103209.44;10598881;28;20047;-77
2022/12/03 10:09:56;;;;;;;19.33;6.88;;;;;;;-5.95;77.14;103201.31;10598207;28;20047;-77
2022/12/03 10:14:59;;;;;;;12.10;6.22;;;;;;;-5.97;77.23;103202.41;10620621;27;20401;-77
2022/12/03 10:20:01;;;;;;;13.93;6.13;;;;;;;-5.93;77.35;103207.41;10630200;27;20040;-77
2022/12/03 10:25:12;;;;;;;11.85;6.00;;;;;;;-5.93;77.71;103199.38;10551251;28;20490;-77
2022/12/03 10:30:19;;;;;;;13.80;6.25;;;;;;;-5.96;77.79;103190.72;10648746;27;20100;-77
2022/12/03 10:35:36;;;;;;;12.40;5.65;;;;;;;-5.92;77.92;103185.03;10647926;27;20038;-77
2022/12/03 10:40:38;;;;;;;16.40;6.97;;;;;;;-5.85;78.29;103185.44;10618111;28;20063;-77
2022/12/03 10:45:41;;;;;;;5.82;3.30;;;;;;;-5.87;78.12;103193.56;10617546;28;20516;-76
2022/12/03 10:50:55;;;;;;;10.68;5.75;;;;;;;-5.84;78.57;103188.00;10650446;27;20043;-75
2022/12/03 10:55:59;;;;;;;14.05;6.85;;;;;;;-5.81;78.54;103178.91;10619589;27;20402;-77
2022/12/03 11:01:05;;;;;;;9.98;4.32;;;;;;;-5.81;78.11;103190.44;10612614;27;20050;-79
2022/12/03 11:06:19;;;;;;;16.13;6.18;;;;;;;-5.81;78.31;103186.91;10595763;27;20047;-80
2022/12/03 11:11:25;;;;;;;13.85;6.32;;;;;;;-5.80;78.27;103180.59;10637220;27;20057;-80
2022/12/03 11:16:39;;;;;;;9.75;5.18;;;;;;;-5.78;78.76;103176.00;10587070;27;20046;-80
2022/12/03 11:22:16;;;;;;;7.50;3.28;;;;;;;-5.77;78.93;103178.56;10613071;27;20031;-80
2022/12/03 11:27:20;;;;;;;14.70;7.43;;;;;;;-5.72;78.80;103174.72;10598726;27;20043;-80
2022/12/03 11:32:38;;;;;;;8.73;4.82;;;;;;;-5.71;79.44;103181.78;10637298;27;20046;-80
2022/12/03 11:37:41;;;;;;;9.70;5.90;;;;;;;-5.68;79.05;103171.69;10631993;27;20134;-79
2022/12/03 11:42:47;;;;;;;9.40;4.75;;;;;;;-5.67;79.33;103176.06;10607121;27;20051;-79
2022/12/03 11:48:11;;;;;;;9.00;4.13;;;;;;;-5.63;79.05;103169.53;10614589;27;20521;-80
2022/12/03 11:53:18;;;;;;;10.80;5.25;;;;;;;-5.62;79.26;103163.22;10630263;27;21151;-78
2022/12/03 11:58:23;;;;;;;7.68;4.55;;;;;;;-5.41;79.22;103167.94;10593758;27;20040;-79
2022/12/03 12:03:34;;;;;;;12.45;5.60;;;;;;;-5.40;79.67;103175.84;10603893;27;20038;-80
2022/12/03 12:08:41;;;;;;;10.10;6.13;;;;;;;-5.40;79.26;103167.81;10584416;27;20514;-81
2022/12/03 12:13:49;;;;;;;9.07;4.82;;;;;;;-5.38;80.09;103173.94;10594384;28;20036;-80
2022/12/03 12:18:54;;;;;;;19.80;6.50;;;;;;;-5.30;79.42;103173.34;10614202;27;20050;-78
2022/12/03 12:24:29;;;;;;;5.95;3.95;;;;;;;-5.36;80.10;103161.28;10610555;27;20047;-78
2022/12/03 12:29:33;;;;;;;10.30;5.07;;;;;;;-5.28;79.98;103158.00;10612548;28;20035;-79
2022/12/03 12:34:38;;;;;;;10.93;5.22;;;;;;;-5.22;79.84;103149.50;10574151;28;20035;-78
2022/12/03 12:45:15;;;;;;;11.03;5.60;;;;;;;-5.09;80.01;103144.09;10590128;28;20039;-79
2022/12/03 12:50:18;;;;;;;5.13;3.83;;;;;;;-5.10;80.34;103145.91;10587249;28;20047;-78
2022/12/03 12:55:24;;;;;;;4.85;3.10;;;;;;;-5.11;80.22;103159.41;10589866;28;20413;-79
2022/12/03 13:00:30;;;;;;;9.73;4.35;;;;;;;-5.08;80.14;103160.03;10601317;28;20036;-78
2022/12/03 13:05:41;;;;;;;8.18;4.45;;;;;;;-5.01;80.50;103165.78;10606254;28;20058;-78
2022/12/03 13:10:44;;;;;;;11.60;5.05;;;;;;;-4.99;80.48;103159.34;10611193;28;20532;-78
2022/12/03 13:16:06;;;;;;;12.98;5.13;;;;;;;-4.99;80.43;103164.69;10611548;27;20028;-79
2022/12/03 13:21:37;;;;;;;10.15;2.75;;;;;;;-5.01;80.42;103161.28;10608007;27;20035;-78
2022/12/03 13:26:39;;;;;;;9.95;3.97;;;;;;;-5.01;80.97;103155.09;10612558;28;20039;-78
2022/12/03 13:31:49;;;;;;;8.38;3.80;;;;;;;-4.99;80.54;103158.50;10596186;28;20510;-78
2022/12/03 13:36:52;;;;;;;10.18;4.65;;;;;;;-4.92;80.89;103160.56;10594530;28;20035;-77
2022/12/03 13:53:01;;;;;;;12.90;5.15;;;;;;;-4.91;80.81;103156.06;10610472;28;20325;-76
2022/12/03 13:58:03;;;;;;;12.38;4.68;;;;;;;-4.90;80.79;103165.78;10603785;27;20039;-76
2022/12/03 14:03:05;;;;;;;7.05;3.80;;;;;;;-4.89;81.31;103159.47;10610365;27;20055;-75
2022/12/03 14:08:07;;;;;;;10.98;4.85;;;;;;;-4.94;80.52;103161.66;10594737;28;20036;-76
2022/12/03 14:13:10;;;;;;;8.80;4.45;;;;;;;-4.95;80.91;103160.81;10608261;28;20039;-75
2022/12/03 14:18:12;;;;;;;7.53;2.75;;;;;;;-4.90;80.99;103160.44;10569072;27;20047;-76
2022/12/03 14:23:45;;;;;;;9.65;5.20;;;;;;;-4.88;80.84;103145.97;10610122;28;20055;-76
2022/12/03 14:28:47;;;;;;;7.75;3.83;;;;;;;-4.86;80.73;103154.75;10612415;28;20052;-76
2022/12/03 14:33:49;;;;;;;10.70;4.78;;;;;;;-4.83;81.03;103156.34;10611722;28;20043;-76
2022/12/03 14:38:51;;;;;;;11.18;5.00;;;;;;;-4.80;81.24;103157.94;10609807;28;20036;-76
2022/12/03 14:43:54;;;;;;;4.28;3.28;;;;;;;-4.84;80.78;103145.75;10611927;28;20035;-75
2022/12/03 14:48:57;;;;;;;6.28;3.38;;;;;;;-4.86;80.92;103156.56;10611662;28;20032;-75
2022/12/03 14:59:32;;;;;;;12.00;4.72;;;;;;;-4.85;81.05;103136.88;10608034;28;20043;-74
2022/12/03 15:04:34;;;;;;;10.00;5.43;;;;;;;-4.84;81.06;103143.06;10573225;28;20167;-76
2022/12/03 15:09:37;;;;;;;14.73;5.53;;;;;;;-4.83;81.03;103142.94;10608102;28;20051;-74
2022/12/03 15:14:40;;;;;;;10.27;3.97;;;;;;;-4.83;80.73;103140.28;10618534;27;20035;-75
2022/12/03 15:19:42;;;;;;;8.60;4.45;;;;;;;-4.81;81.35;103129.44;10586525;27;20035;-75
2022/12/03 15:25:09;;;;;;;11.15;3.50;;;;;;;-4.81;81.27;103140.16;10572599;28;20541;-75
2022/12/03 15:30:12;;;;;;;10.68;4.15;;;;;;;-4.79;81.17;103128.34;10567703;27;20044;-78
2022/12/03 15:35:17;;;;;;;9.13;4.63;;;;;;;-4.74;81.11;103141.38;10608265;27;20062;-77
2022/12/03 15:40:19;;;;;;;9.38;4.75;;;;;;;-4.75;81.21;103139.66;10591115;27;20494;-75
2022/12/03 15:45:26;;;;;;;10.15;5.22;;;;;;;-4.76;81.29;103162.91;10613770;28;20517;-75
2022/12/03 15:50:29;;;;;;;8.35;4.05;;;;;;;-4.69;81.17;103150.72;10616632;27;20044;-75
2022/12/03 15:55:31;;;;;;;4.70;3.03;;;;;;;-4.72;81.16;103156.34;10587240;28;20051;-76
2022/12/03 16:00:37;;;;;;;5.03;2.70;;;;;;;-4.72;81.12;103150.13;10607555;27;20035;-76
2022/12/03 16:05:39;;;;;;;9.80;4.68;;;;;;;-4.72;80.89;103153.66;10611623;27;20486;-76
2022/12/03 16:10:42;;;;;;;13.13;4.93;;;;;;;-4.64;81.08;103153.09;10619584;27;20039;-76
2022/12/03 16:15:44;;;;;;;8.65;3.75;;;;;;;-4.63;81.19;103157.47;10613640;28;20047;-76
2022/12/03 16:20:47;;;;;;;8.75;4.45;;;;;;;-4.65;81.13;103156.72;10579007;28;20527;-76
2022/12/03 16:25:49;;;;;;;10.70;5.45;;;;;;;-4.59;81.07;103156.25;10611878;27;20040;-76
2022/12/03 16:30:52;;;;;;;12.73;4.65;;;;;;;-4.59;80.96;103151.72;10614641;27;20421;-76
2022/12/03 16:35:58;;;;;;;12.15;5.38;;;;;;;-4.56;81.20;103153.31;10574254;28;20520;-76
2022/12/03 16:41:27;;;;;;;10.00;3.72;;;;;;;-4.52;80.97;103168.16;10589347;28;20031;-76
2022/12/03 16:46:33;;;;;;;10.05;5.07;;;;;;;-4.50;81.24;103162.72;10619100;27;20047;-77
2022/12/03 16:51:35;;;;;;;8.18;4.00;;;;;;;-4.49;81.31;103165.28;10619468;27;20405;-74
2022/12/03 16:56:37;;;;;;;4.05;1.77;;;;;;;-4.47;81.10;103166.00;10627726;27;20040;-76
2022/12/03 17:01:39;;;;;;;7.63;4.38;;;;;;;-4.44;81.35;103164.91;10631021;27;20039;-76
2022/12/03 17:06:42;;;;;;;11.88;5.53;;;;;;;-4.44;80.95;103171.13;10624991;27;20043;-74
2022/12/03 17:11:48;;;;;;;8.35;4.10;;;;;;;-4.44;80.95;103175.63;10628818;27;20498;-75
2022/12/03 17:16:50;;;;;;;7.53;4.68;;;;;;;-4.44;81.01;103167.59;10602944;27;20040;-77
2022/12/03 17:21:52;;;;;;;7.05;3.70;;;;;;;-4.45;80.83;103168.56;10624870;27;20048;-76
2022/12/03 17:26:55;;;;;;;12.13;5.35;;;;;;;-4.39;81.14;103178.78;10618938;27;20037;-75
2022/12/03 17:31:57;;;;;;;10.23;5.00;;;;;;;-4.42;80.57;103169.16;10623136;27;20047;-75
2022/12/03 17:36:59;;;;;;;10.02;4.20;;;;;;;-4.39;80.94;103173.44;10618716;27;20070;-75
2022/12/03 17:42:01;;;;;;;7.32;3.95;;;;;;;-4.37;80.61;103166.13;10625967;27;20397;-75
2022/12/03 17:47:08;;;;;;;8.20;4.18;;;;;;;-4.32;80.27;103174.66;10635718;27;20034;-75
2022/12/03 17:52:11;;;;;;;13.50;5.72;;;;;;;-4.26;80.74;103168.81;10647456;27;20039;-75
2022/12/03 17:57:13;;;;;;;11.43;6.25;;;;;;;-4.33;80.65;103173.81;10642373;27;20048;-77
2022/12/03 18:02:15;;;;;;;15.80;6.80;;;;;;;-4.28;80.36;103170.75;10630377;27;20051;-76
2022/12/03 18:07:17;;;;;;;13.13;6.72;;;;;;;-4.26;80.12;103168.81;10611980;28;20409;-77
2022/12/03 18:12:19;;;;;;;14.98;6.57;;;;;;;-4.31;80.03;103166.50;10606163;27;20039;-78
2022/12/03 18:17:22;;;;;;;11.98;6.30;;;;;;;-4.33;79.84;103167.59;10649245;27;20555;-78
2022/12/03 18:22:26;;;;;;;14.00;6.32;;;;;;;-4.40;79.44;103159.19;10636022;27;20031;-78
2022/12/03 18:27:28;;;;;;;12.45;7.00;;;;;;;-4.42;79.64;103168.31;10603080;28;20048;-78
2022/12/03 18:32:30;;;;;;;13.52;6.57;;;;;;;-4.45;79.33;103163.22;10604708;27;20044;-78
2022/12/03 18:37:33;;;;;;;13.43;6.60;;;;;;;-4.53;79.49;103170.97;10618489;27;20035;-77
2022/12/03 18:42:35;;;;;;;12.93;6.78;;;;;;;-4.61;79.17;103164.41;10625253;27;20043;-77
2022/12/03 18:47:38;;;;;;;14.18;6.80;;;;;;;-4.63;79.51;103170.84;10621323;27;20047;-78
2022/12/03 18:52:40;;;;;;;11.68;6.03;;;;;;;-4.67;79.97;103169.41;10650743;27;20421;-78
2022/12/03 18:57:42;;;;;;;13.55;6.78;;;;;;;-4.64;79.80;103177.19;10623143;27;20050;-77
2022/12/03 19:02:45;;;;;;;13.75;6.35;;;;;;;-4.67;80.22;103162.22;10602069;27;20036;-77
2022/12/03 19:07:49;;;;;;;17.88;6.25;;;;;;;-4.66;80.22;103166.59;10614910;28;20039;-77
2022/12/03 19:12:52;;;;;;;7.10;3.83;;;;;;;-4.62;80.03;103170.72;10579205;27;20418;-76
2022/12/03 19:18:23;;;;;;;13.45;6.78;;;;;;;-4.69;79.70;103163.28;10611758;27;20044;-78
2022/12/03 19:23:25;;;;;;;8.00;4.55;;;;;;;-4.72;79.57;103172.41;10593274;28;20497;-74
2022/12/03 19:28:32;;;;;;;16.38;7.03;;;;;;;-4.72;80.00;103166.19;10616430;27;20039;-75
2022/12/03 19:33:34;;;;;;;12.23;7.32;;;;;;;-4.74;80.11;103170.81;10582651;28;20047;-76
2022/12/03 19:38:41;;;;;;;10.20;6.07;;;;;;;-4.76;79.59;103168.28;10614987;27;20032;-76
2022/12/03 19:43:53;;;;;;;15.30;7.28;;;;;;;-4.76;79.77;103170.09;10615053;27;20065;-75
2022/12/03 19:48:56;;;;;;;12.00;6.38;;;;;;;-4.77;79.97;103174.59;10603587;27;20031;-76
2022/12/03 19:53:58;;;;;;;13.55;6.82;;;;;;;-4.69;79.62;103174.84;10604018;27;20039;-74
2022/12/03 19:59:01;;;;;;;9.25;5.00;;;;;;;-4.68;79.68;103163.19;10614892;27;20054;-75
2022/12/03 20:04:04;;;;;;;14.65;7.30;;;;;;;-4.70;80.05;103174.97;10611859;27;20409;-77
2022/12/03 20:09:11;;;;;;;16.42;7.25;;;;;;;-4.71;79.50;103183.97;10634909;27;20039;-76
2022/12/03 20:14:15;;;;;;;13.57;8.07;;;;;;;-4.75;79.64;103175.34;10611567;27;20031;-75
2022/12/03 20:19:47;;;;;;;12.48;7.32;;;;;;;-4.74;79.89;103177.03;10572145;28;20054;-75
2022/12/03 20:24:49;;;;;;;10.82;6.32;;;;;;;-4.76;79.70;103170.94;10608036;28;20047;-80
2022/12/03 20:29:56;;;;;;;13.73;7.38;;;;;;;-4.74;79.48;103179.72;10588598;28;20560;-76
2022/12/03 20:35:23;;;;;;;14.70;7.43;;;;;;;-4.74;79.62;103179.72;10563593;28;20032;-76
2022/12/03 20:40:25;;;;;;;16.50;7.95;;;;;;;-4.76;79.62;103180.81;10568481;28;20044;-77
2022/12/03 20:45:27;;;;;;;18.10;7.50;;;;;;;-4.83;79.25;103185.78;10574535;28;20048;-80
2022/12/03 20:50:29;;;;;;;16.55;9.05;;;;;;;-4.88;79.26;103187.94;10573606;28;20048;-78
2022/12/03 20:55:32;;;;;;;14.98;7.78;;;;;;;-4.93;79.22;103190.13;10572833;28;20166;-79
2022/12/03 21:00:34;;;;;;;14.40;8.25;;;;;;;-5.01;80.08;103195.25;10576637;28;20043;-79
2022/12/03 21:05:37;;;;;;;14.73;7.68;;;;;;;-5.06;79.47;103203.59;10576204;28;20544;-78
2022/12/03 21:10:46;;;;;;;14.65;8.23;;;;;;;-5.10;79.63;103203.94;10574509;28;20040;-78
2022/12/03 21:15:48;;;;;;;13.38;7.32;;;;;;;-5.07;79.75;103199.22;10585839;28;20056;-78
2022/12/03 21:20:52;;;;;;;15.00;8.75;;;;;;;-5.12;80.37;103197.88;10577276;28;20036;-76
2022/12/03 21:26:00;;;;;;;15.75;8.95;;;;;;;-5.08;80.00;103202.00;10572133;28;20048;-77
2022/12/03 21:31:06;;;;;;;14.98;7.70;;;;;;;-5.07;80.00;103201.03;10602221;27;20420;-77
2022/12/03 21:36:09;;;;;;;13.55;7.45;;;;;;;-5.10;79.66;103187.88;10594802;28;20051;-79
2022/12/03 21:41:13;;;;;;;13.18;7.63;;;;;;;-5.19;80.22;103198.34;10633085;27;20046;-78
2022/12/03 21:46:16;;;;;;;14.95;7.57;;;;;;;-5.17;79.45;103196.41;10595302;28;20035;-78
2022/12/03 21:51:18;;;;;;;16.15;8.32;;;;;;;-5.27;79.52;103192.69;10616925;28;20063;-78
2022/12/03 21:56:21;;;;;;;12.48;7.25;;;;;;;-5.28;79.96;103195.47;10659244;27;20531;-77
2022/12/03 22:01:23;;;;;;;16.05;8.10;;;;;;;-5.30;79.73;103200.94;10655665;27;20030;-79
2022/12/03 22:06:26;;;;;;;14.63;7.68;;;;;;;-5.30;80.49;103202.78;10643009;27;20047;-78
2022/12/03 22:11:28;;;;;;;15.77;7.65;;;;;;;-5.28;80.52;103192.81;10604654;28;20052;-78
2022/12/03 22:16:30;;;;;;;14.55;7.47;;;;;;;-5.32;80.03;103194.00;10621218;27;20063;-78
2022/12/03 22:21:34;;;;;;;14.65;7.57;;;;;;;-5.36;80.69;103188.03;10656090;27;20054;-77
2022/12/03 22:26:36;;;;;;;4.88;3.08;;;;;;;-5.32;80.59;103189.50;10651187;27;20043;-77
2022/12/03 22:31:39;;;;;;;16.00;7.10;;;;;;;-5.32;80.47;103189.50;10568454;28;20422;-77
2022/12/03 22:36:41;;;;;;;14.43;7.95;;;;;;;-5.26;80.40;103191.72;10620286;27;20032;-78
2022/12/03 22:41:44;;;;;;;16.25;7.75;;;;;;;-5.26;80.44;103190.88;10596919;27;20071;-78
2022/12/03 22:46:46;;;;;;;12.75;7.80;;;;;;;-5.30;80.63;103194.75;10595167;28;20039;-80
2022/12/03 22:51:49;;;;;;;12.20;6.82;;;;;;;-5.34;80.38;103191.44;10618995;27;20043;-79
2022/12/03 22:56:51;;;;;;;13.38;7.65;;;;;;;-5.31;81.07;103191.22;10633607;27;20042;-78
2022/12/03 23:01:53;;;;;;;14.43;7.72;;;;;;;-5.27;80.98;103198.03;10626652;27;20497;-78
2022/12/03 23:06:55;;;;;;;11.57;7.30;;;;;;;-5.30;80.90;103184.91;10609228;28;20051;-77
2022/12/03 23:11:58;;;;;;;14.70;7.47;;;;;;;-5.30;81.01;103192.06;10590312;28;20051;-78
2022/12/03 23:17:00;;;;;;;10.68;5.93;;;;;;;-5.30;81.47;103192.06;10638689;27;20035;-78
2022/12/03 23:22:02;;;;;;;13.45;7.35;;;;;;;-5.33;81.33;103201.19;10607862;27;20040;-78
2022/12/03 23:27:04;;;;;;;14.25;7.35;;;;;;;-5.24;80.63;103203.16;10571902;28;20126;-78
2022/12/03 23:32:06;;;;;;;15.05;7.07;;;;;;;-5.19;80.85;103201.00;10630905;27;20541;-77
2022/12/03 23:37:09;;;;;;;13.38;7.35;;;;;;;-5.17;81.28;103209.78;10633742;27;20046;-77
2022/12/03 23:42:11;;;;;;;16.05;7.60;;;;;;;-5.17;80.46;103214.28;10636973;27;20493;-77